Weather History for KOSC - June, 2014

Change the Weather History Date:

Sunday, June 15, 2014

  Actual Average Record
Temperature  
Mean Temperature 57 °F -  
Max Temperature 70 °F 71 °F 89 °F (2001)
Min Temperature 44 °F 51 °F 39 °F (2011)
Degree Days  
Heating Degree Days 8    
Growing Degree Days 7 (Base 50)    
Moisture  
Dew Point 47 °F    
Average Humidity 65    
Maximum Humidity 90    
Minimum Humidity 45    
Precipitation  
Precipitation 0.00 in - - ()
Sea Level Pressure  
Sea Level Pressure 30.08 in    
Wind  
Wind Speed 5 mph (ESE)    
Max Wind Speed 17 mph    
Max Gust Speed 21 mph    
Visibility 10 miles    
Events      
Averages and records for this station are not official NWS values.
T = Trace of Precipitation, MM = Missing Value Source: NWS Daily Summary

Daily Weather History Graph

Daily Weather History Graph

Search for Another Location

Airport or City:

Trip Planner

Search our weather history database for the weather conditions in past years. The results will help you decide how hot, cold, wet, or windy it might be!

Date:

Astronomy

Jun. 15, 2014 Rise Set
Actual Time 5:48 AM EDT 9:19 PM EDT
Civil Twilight 5:11 AM EDT 9:56 PM EDT
Nautical Twilight 4:23 AM EDT 10:45 PM EDT
Astronomical Twilight 3:20 AM EDT 11:48 PM EDT
Moon 11:22 PM EDT (6/15) 8:46 AM EDT (6/15)
Length of Visible Light 16h 45m
Length of Day
15h 31m
Waning Gibbous, 91% of the Moon is Illuminated
Jun 15
Waning Gibbous
Jun 19
Last Quarter
Jun 27
New
Jul 5
First Quarter
Jul 12
Full

Hourly Weather History & Observations

Time (EDT) Temp. Dew Point Humidity Pressure Visibility Wind Dir Wind Speed Gust Speed Precip Events Conditions
12:13 AM 50.5 °F 44.6 °F 80% 30.14 in 10.0 mi Calm Calm - N/A   Clear
12:34 AM 46.6 °F 41.5 °F 83% 30.14 in 10.0 mi WSW 3.5 mph - N/A   Clear
12:53 AM 45.3 °F 41.2 °F 85% 30.15 in 10.0 mi Calm Calm - N/A   Clear
1:14 AM 46.2 °F 42.8 °F 88% 30.14 in 10.0 mi Calm Calm - N/A   Clear
1:34 AM 45.0 °F 40.6 °F 85% 30.15 in 10.0 mi Calm Calm - N/A   Clear
1:53 AM 44.6 °F 40.1 °F 84% 30.15 in 10.0 mi Calm Calm - N/A   Clear
2:14 AM 44.8 °F 41.2 °F 87% 30.15 in 10.0 mi Calm Calm - N/A   Clear
2:34 AM 44.6 °F 41.2 °F 88% 30.15 in 10.0 mi Calm Calm - N/A   Clear
2:53 AM 44.6 °F 41.0 °F 87% 30.15 in 10.0 mi Calm Calm - N/A   Clear
3:14 AM 44.8 °F 41.9 °F 90% 30.16 in 10.0 mi Calm Calm - N/A   Clear
3:33 AM 44.1 °F 41.0 °F 89% 30.16 in 10.0 mi Calm Calm - N/A   Clear
3:53 AM 52.0 °F 46.0 °F 80% 30.15 in 10.0 mi ESE 6.9 mph - N/A   Clear
4:14 AM 52.3 °F 45.5 °F 78% 30.16 in 10.0 mi ESE 4.6 mph - N/A   Clear
4:33 AM 52.0 °F 45.1 °F 77% 30.15 in 10.0 mi ESE 6.9 mph - N/A   Clear
4:53 AM 52.0 °F 45.3 °F 78% 30.15 in 10.0 mi ESE 6.9 mph - N/A   Clear
5:14 AM 52.0 °F 45.5 °F 79% 30.16 in 10.0 mi ESE 6.9 mph - N/A   Clear
5:33 AM 52.0 °F 45.7 °F 79% 30.17 in 10.0 mi East 4.6 mph - N/A   Clear
5:53 AM 51.8 °F 45.5 °F 79% 30.17 in 10.0 mi ESE 5.8 mph - N/A   Clear
6:14 AM 51.4 °F 45.5 °F 80% 30.18 in 10.0 mi East 5.8 mph - N/A   Clear
6:33 AM 51.3 °F 45.5 °F 81% 30.18 in 10.0 mi East 4.6 mph - N/A   Clear
6:53 AM 51.8 °F 45.5 °F 79% 30.18 in 10.0 mi East 5.8 mph - N/A   Clear
7:14 AM 52.7 °F 45.5 °F 76% 30.18 in 10.0 mi ESE 8.1 mph - N/A   Clear
7:33 AM 53.2 °F 45.7 °F 76% 30.18 in 10.0 mi ESE 6.9 mph - N/A   Clear
7:53 AM 54.0 °F 46.2 °F 75% 30.17 in 10.0 mi ESE 8.1 mph - N/A   Clear
8:14 AM 54.1 °F 46.6 °F 76% 30.17 in 10.0 mi ESE 8.1 mph - N/A   Clear
8:33 AM 55.0 °F 47.3 °F 75% 30.16 in 10.0 mi ESE 6.9 mph - N/A   Clear
8:54 AM 56.5 °F 47.7 °F 72% 30.15 in 10.0 mi East 4.6 mph - N/A   Clear
9:14 AM 58.1 °F 47.5 °F 68% 30.15 in 10.0 mi East 5.8 mph - N/A   Clear
9:33 AM 59.0 °F 46.6 °F 63% 30.15 in 10.0 mi ESE 5.8 mph - N/A   Clear
9:54 AM 60.1 °F 46.6 °F 61% 30.15 in 10.0 mi East 5.8 mph - N/A   Clear
10:14 AM 59.9 °F 47.1 °F 63% 30.14 in 10.0 mi ESE 6.9 mph - N/A   Clear
10:33 AM 60.1 °F 46.9 °F 62% 30.14 in 10.0 mi ESE 8.1 mph - N/A   Clear
10:54 AM 61.2 °F 47.1 °F 60% 30.13 in 10.0 mi ESE 6.9 mph - N/A   Clear
11:14 AM 61.2 °F 47.7 °F 61% 30.13 in 10.0 mi East 5.8 mph - N/A   Clear
11:33 AM 61.9 °F 48.4 °F 61% 30.14 in 10.0 mi East 8.1 mph - N/A   Clear
11:54 AM 62.4 °F 48.9 °F 61% 30.13 in 10.0 mi ESE 8.1 mph - N/A   Clear
12:14 PM 63.1 °F 49.1 °F 60% 30.12 in 10.0 mi ESE 9.2 mph - N/A   Clear
12:33 PM 64.6 °F 49.1 °F 57% 30.11 in 10.0 mi ESE 8.1 mph - N/A   Clear
12:54 PM 65.3 °F 49.1 °F 56% 30.11 in 10.0 mi ESE 9.2 mph - N/A   Clear
1:13 PM 65.8 °F 49.5 °F 55% 30.10 in 10.0 mi ESE 11.5 mph - N/A   Clear
1:33 PM 66.6 °F 49.3 °F 54% 30.10 in 10.0 mi ESE 10.4 mph - N/A   Clear
1:54 PM 67.8 °F 49.1 °F 51% 30.09 in 10.0 mi East 10.4 mph - N/A   Clear
2:13 PM 68.0 °F 49.1 °F 51% 30.08 in 10.0 mi ESE 10.4 mph - N/A   Clear
2:33 PM 66.6 °F 48.7 °F 53% 30.08 in 10.0 mi ESE 9.2 mph - N/A   Clear
2:53 PM 66.7 °F 49.3 °F 53% 30.06 in 10.0 mi ESE 10.4 mph 17.3 mph N/A   Clear
3:13 PM 67.6 °F 49.1 °F 51% 30.05 in 10.0 mi ESE 11.5 mph - N/A   Clear
3:34 PM 67.6 °F 49.1 °F 51% 30.04 in 10.0 mi ESE 11.5 mph - N/A   Clear
3:53 PM 69.3 °F 48.6 °F 48% 30.03 in 10.0 mi SE 10.4 mph - N/A   Clear
4:13 PM 70.0 °F 48.2 °F 46% 30.02 in 10.0 mi ESE 13.8 mph - N/A   Clear
4:34 PM 70.2 °F 47.8 °F 45% 30.01 in 10.0 mi ESE 12.7 mph 16.1 mph N/A   Clear
4:53 PM 68.4 °F 47.8 °F 48% 29.99 in 10.0 mi ESE 17.3 mph - N/A   Clear
5:13 PM 67.6 °F 47.7 °F 49% 29.98 in 10.0 mi ESE 15.0 mph 19.6 mph N/A   Clear
5:34 PM 67.3 °F 47.7 °F 49% 29.97 in 10.0 mi ESE 12.7 mph - N/A   Clear
5:53 PM 68.5 °F 47.7 °F 47% 29.97 in 10.0 mi ESE 12.7 mph 18.4 mph N/A   Clear
6:13 PM 66.6 °F 47.5 °F 50% 29.96 in 10.0 mi ESE 13.8 mph 20.7 mph N/A   Clear
6:34 PM 65.3 °F 47.5 °F 52% 29.96 in 10.0 mi ESE 13.8 mph - N/A   Clear
6:53 PM 63.3 °F 48.0 °F 57% 29.98 in 10.0 mi ESE 9.2 mph 17.3 mph N/A   Clear
7:13 PM 63.9 °F 48.4 °F 57% 29.97 in 10.0 mi ESE 8.1 mph - N/A   Clear
7:34 PM 62.6 °F 48.9 °F 61% 29.97 in 10.0 mi ESE 11.5 mph - N/A   Clear
7:53 PM 62.2 °F 49.1 °F 62% 29.98 in 10.0 mi SE 5.8 mph - N/A   Clear
8:13 PM 62.8 °F 49.8 °F 63% 29.96 in 10.0 mi SE 6.9 mph - N/A   Clear
8:34 PM 63.5 °F 50.9 °F 63% 29.96 in 10.0 mi SE 4.6 mph - N/A   Clear
8:53 PM 63.7 °F 51.6 °F 65% 29.96 in 10.0 mi SE 5.8 mph - N/A   Clear
9:13 PM 63.7 °F 51.8 °F 65% 29.95 in 10.0 mi ESE 3.5 mph - N/A   Clear
9:34 PM 64.0 °F 51.8 °F 64% 29.95 in 10.0 mi SE 4.6 mph - N/A   Clear
9:53 PM 66.0 °F 50.9 °F 58% 29.96 in 10.0 mi SE 4.6 mph - N/A   Mostly Cloudy
10:13 PM 67.5 °F 49.5 °F 52% 29.96 in 10.0 mi SE 5.8 mph - N/A   Overcast
10:34 PM 68.0 °F 48.2 °F 49% 29.96 in 10.0 mi SSE 6.9 mph - N/A   Overcast
10:53 PM 68.4 °F 47.3 °F 47% 29.95 in 10.0 mi SSE 6.9 mph - N/A   Overcast
11:13 PM 68.5 °F 46.6 °F 45% 29.95 in 10.0 mi SSE 6.9 mph - N/A   Mostly Cloudy
11:34 PM 68.5 °F 46.6 °F 45% 29.95 in 10.0 mi SSE 5.8 mph - N/A   Mostly Cloudy
11:53 PM 68.5 °F 46.8 °F 46% 29.94 in 10.0 mi SSE 4.6 mph - N/A   Overcast